»·PEaware :: N9099K KGEG-KPSC

N9099K :: KGEG-KPSC

FLIGHT INFORMATION

Flight Status: Arrived
Operator: Privately registered:
United States
More flights under this callsign
Pilot: Latitude Aviation (9250)
Aircraft: PIPER PA-28 CHEROKEE ARCHER
(PA28)
More flights by this aircraft type
Origin: KGEG Spokane Intl
United States
Destination: KPSC Tri-Cities
United States
More flights between these airports :: More routes between these airports
Route: +GEG3 GEG V204 PSC
File this flight plan on PilotEdge
Remarks: RNAV 03L (Y) Using my own weather
Altitude:
(Current/Filed)
6,000ft
Speed:
(Current/Filed)
129kts
Departed: 16-May-18 05:30 PM
Arrived: 16-May-18 06:39 PM
Distance/Time
Traveled:
104nm/1:09
Distance/Time
To Go:
Arrived

Flight Plot

Page will automatically refresh every two minutes.

Flight plan parsing failed; only flown route is shown


Map Options




Map Legend


Flown Route
Filed Route
Departure Airport
Arrival Airport
Navaid (VOR, NDB)
Fix

Horizontal Profiles

Position Reports

Time Latitude Longitude Heading Altitude Ground
Speed
16-May-18 16:42 47.620756 -117.524837 89 2337ft 0kts
16-May-18 16:43 47.620756 -117.524837 89 2337ft 0kts
16-May-18 16:44 47.620756 -117.524837 89 2337ft 0kts
16-May-18 16:45 47.620756 -117.524837 89 2337ft 0kts
16-May-18 16:46 47.620756 -117.524837 89 2337ft 0kts
16-May-18 16:47 47.620756 -117.524837 89 2337ft 0kts
16-May-18 16:48 47.620756 -117.524837 89 2337ft 0kts
16-May-18 16:49 47.620756 -117.524837 89 2337ft 0kts
16-May-18 16:50 47.620756 -117.524837 89 2337ft 0kts
16-May-18 16:51 47.620756 -117.524817 85 2336ft 0kts
16-May-18 16:52 47.620756 -117.524817 85 2336ft 0kts
16-May-18 16:53 47.620756 -117.524817 85 2336ft 0kts
16-May-18 16:54 47.620756 -117.524817 85 2336ft 0kts
16-May-18 16:55 47.620756 -117.524817 85 2336ft 0kts
16-May-18 16:56 47.620756 -117.524817 85 2336ft 0kts
16-May-18 16:57 47.620756 -117.524817 85 2336ft 0kts
16-May-18 16:58 47.620756 -117.524817 85 2336ft 0kts
16-May-18 16:59 47.620756 -117.524817 85 2336ft 0kts
16-May-18 17:00 47.620756 -117.524817 85 2336ft 0kts
16-May-18 17:01 47.620756 -117.524817 85 2336ft 0kts
16-May-18 17:02 47.620756 -117.524817 85 2336ft 0kts
16-May-18 17:03 47.620756 -117.524817 85 2336ft 0kts
16-May-18 17:04 47.620756 -117.524817 85 2336ft 0kts
16-May-18 17:05 47.620756 -117.524817 85 2336ft 0kts
16-May-18 17:06 47.620756 -117.524817 85 2336ft 0kts
16-May-18 17:07 47.620756 -117.524817 85 2336ft 0kts
16-May-18 17:08 47.620756 -117.524817 85 2336ft 0kts
16-May-18 17:09 47.620756 -117.524817 85 2336ft 0kts
16-May-18 17:10 47.620756 -117.524817 85 2336ft 0kts
16-May-18 17:11 47.620756 -117.524817 85 2336ft 0kts
16-May-18 17:12 47.620756 -117.524817 85 2336ft 0kts
16-May-18 17:13 47.620756 -117.524817 85 2336ft 0kts
16-May-18 17:14 47.620756 -117.524817 85 2336ft 0kts
16-May-18 17:15 47.620756 -117.524817 85 2336ft 0kts
16-May-18 17:16 47.620756 -117.524817 85 2336ft 0kts
16-May-18 17:17 47.620757 -117.524801 81 2336ft 0kts
16-May-18 17:18 47.621004 -117.527068 236 2338ft 16kts
16-May-18 17:19 47.620536 -117.530877 225 2346ft 17kts
16-May-18 17:20 47.617681 -117.535188 227 2354ft 4kts
16-May-18 17:21 47.613688 -117.541188 225 2359ft 24kts
16-May-18 17:22 47.613438 -117.543024 310 2359ft 0kts
16-May-18 17:23 47.613438 -117.543024 310 2359ft 0kts
16-May-18 17:24 47.613438 -117.543024 310 2359ft 0kts
16-May-18 17:25 47.613438 -117.543024 310 2359ft 0kts
16-May-18 17:26 47.613438 -117.543024 310 2359ft 0kts
16-May-18 17:27 47.613438 -117.543024 310 2359ft 0kts
16-May-18 17:28 47.613438 -117.543024 310 2359ft 0kts
16-May-18 17:29 47.614764 -117.543124 53 2358ft 22kts
16-May-18 17:30 47.628659 -117.523725 41 2738ft 97kts
16-May-18 17:31 47.649396 -117.496548 39 3762ft 93kts
16-May-18 17:32 47.668003 -117.471698 43 4775ft 90kts
16-May-18 17:33 47.682417 -117.486294 239 5808ft 93kts
16-May-18 17:34 47.659261 -117.517944 208 6055ft 142kts
16-May-18 17:35 47.625786 -117.554528 216 6075ft 157kts
16-May-18 17:36 47.592592 -117.594040 216 5988ft 149kts
16-May-18 17:37 47.560519 -117.632282 216 5986ft 148kts
16-May-18 17:38 47.528559 -117.670094 216 5990ft 147kts
16-May-18 17:39 47.505980 -117.718737 220 5987ft 147kts
16-May-18 17:40 47.473397 -117.755329 211 5991ft 147kts
16-May-18 17:41 47.445147 -117.796859 234 5985ft 148kts
16-May-18 17:42 47.411648 -117.830689 209 5989ft 146kts
16-May-18 17:43 47.377781 -117.864273 214 5994ft 147kts
16-May-18 17:44 47.345221 -117.899659 214 5988ft 148kts
16-May-18 17:45 47.312109 -117.935606 214 5989ft 147kts
16-May-18 17:46 47.279385 -117.972267 214 5987ft 148kts
16-May-18 17:47 47.246734 -118.008873 215 5991ft 147kts
16-May-18 17:48 47.214143 -118.045348 215 5990ft 147kts
16-May-18 17:49 47.183107 -118.084821 220 5990ft 148kts
16-May-18 17:50 47.152555 -118.125356 221 5991ft 148kts
16-May-18 17:51 47.122347 -118.166458 221 5989ft 148kts
16-May-18 17:52 47.092107 -118.207555 221 5990ft 148kts
16-May-18 17:53 47.061844 -118.248690 221 5988ft 148kts
16-May-18 17:54 47.031701 -118.289628 221 5991ft 148kts
16-May-18 17:55 47.000267 -118.328705 214 5987ft 147kts
16-May-18 17:56 46.967733 -118.365111 216 5988ft 147kts
16-May-18 17:57 46.935459 -118.402231 216 5990ft 148kts
16-May-18 17:58 46.903096 -118.439488 216 5990ft 148kts
16-May-18 17:59 46.872089 -118.478066 218 5991ft 148kts
16-May-18 18:00 46.840853 -118.517745 218 5990ft 147kts
16-May-18 18:01 46.810021 -118.557276 221 5989ft 148kts
16-May-18 18:02 46.780370 -118.598651 222 5989ft 148kts
16-May-18 18:03 46.748592 -118.636424 211 5992ft 147kts
16-May-18 18:04 46.714819 -118.669828 212 5981ft 147kts
16-May-18 18:05 46.681330 -118.703733 212 5988ft 147kts
16-May-18 18:06 46.647798 -118.737674 212 5985ft 147kts
16-May-18 18:07 46.614171 -118.771761 212 5989ft 147kts
16-May-18 18:08 46.580539 -118.805819 212 5990ft 147kts
16-May-18 18:09 46.545228 -118.841517 213 5552ft 163kts
16-May-18 18:10 46.511596 -118.875462 212 5991ft 147kts
16-May-18 18:11 46.476026 -118.911306 212 5987ft 155kts
16-May-18 18:12 46.441750 -118.945872 213 5992ft 148kts
16-May-18 18:13 46.408099 -118.979734 211 5987ft 147kts
16-May-18 18:14 46.374560 -119.013359 212 5990ft 147kts
16-May-18 18:15 46.341060 -119.046858 212 5988ft 147kts
16-May-18 18:16 46.307459 -119.080418 212 5989ft 147kts
16-May-18 18:17 46.273814 -119.113969 212 5988ft 147kts
16-May-18 18:18 46.245211 -119.154141 223 5674ft 143kts
16-May-18 18:19 46.217135 -119.194592 224 5189ft 142kts
16-May-18 18:20 46.189252 -119.234892 223 4694ft 141kts
16-May-18 18:21 46.161762 -119.274572 223 4226ft 137kts
16-May-18 18:22 46.134771 -119.313497 226 4202ft 138kts
16-May-18 18:23 46.107280 -119.353117 224 4190ft 140kts
16-May-18 18:24 46.076677 -119.386185 198 4190ft 138kts
16-May-18 18:25 46.041554 -119.407587 200 4194ft 136kts
16-May-18 18:26 46.033062 -119.445688 339 4191ft 128kts
16-May-18 18:27 46.061235 -119.419542 45 3811ft 135kts
16-May-18 18:28 46.084308 -119.385829 46 3481ft 96kts
16-May-18 18:29 46.101004 -119.361139 46 3487ft 81kts
16-May-18 18:30 46.119040 -119.334668 46 3104ft 105kts
16-May-18 18:31 46.139390 -119.304650 46 2898ft 97kts
16-May-18 18:32 46.157416 -119.278437 45 2895ft 88kts
16-May-18 18:33 46.175738 -119.251864 46 2645ft 104kts
16-May-18 18:34 46.192958 -119.226565 46 2175ft 105kts
16-May-18 18:35 46.211630 -119.199033 46 1661ft 86kts
16-May-18 18:36 46.226955 -119.176422 47 1236ft 67kts
16-May-18 18:37 46.239443 -119.157960 47 889ft 66kts
16-May-18 18:38 46.252500 -119.138618 46 534ft 64kts
16-May-18 18:39 46.261978 -119.124433 42 393ft 13kts
16-May-18 18:40 46.261444 -119.122652 140 394ft 0kts
16-May-18 18:41 46.261018 -119.122142 140 394ft 15kts
16-May-18 18:42 46.261084 -119.116242 65 383ft 17kts
16-May-18 18:43 46.262855 -119.109949 72 400ft 18kts
16-May-18 18:44 46.263506 -119.107252 67 405ft 6kts
16-May-18 18:45 46.264558 -119.105282 354 397ft 0kts
16-May-18 18:46 46.264558 -119.105282 354 397ft 0kts

Navigation Log

Ident Type
Flight plan parsing failed, navigation log unavailable